Time;durP1;ratioP1;P1;durP2;ratioP2;P2;SDS_P1;SDS_P2;PMS_P1;PMS_P2;Temp;Humidity;BMP_temperature;BMP_pressure;BME280_temperature;BME280_humidity;BME280_pressure;Samples;Min_cycle;Max_cycle;Signal;HPM_P1;HPM_P2
2021/11/28 11:23:33;;;;;;;6.87;2.47;;;5.40;99.90;;;;;;5147117;27;20424;-77
2021/11/28 11:26:37;;;;;;;1.97;0.90;;;5.40;99.90;;;;;;5143383;27;20288;-79
2021/11/28 11:29:14;;;;;;;5.77;2.47;;;5.40;99.90;;;;;;5065791;28;20286;-79
2021/11/28 11:31:43;;;;;;;5.47;3.60;;;5.50;99.90;;;;;;5083333;28;20278;-80
2021/11/28 11:34:23;;;;;;;8.80;8.10;;;5.50;99.90;;;;;;5109810;27;20391;-80
2021/11/28 11:36:57;;;;;;;3.00;1.60;;;5.60;99.90;;;;;;5145399;27;20639;-77
2021/11/28 11:39:25;;;;;;;4.80;1.43;;;5.60;99.90;;;;;;5146953;27;20303;-76
2021/11/28 11:41:52;;;;;;;0.97;0.50;;;5.70;99.90;;;;;;5145930;27;20320;-74
2021/11/28 11:44:18;;;;;;;3.43;0.90;;;5.60;99.90;;;;;;5145560;27;20284;-75
2021/11/28 11:46:47;;;;;;;1.97;0.57;;;5.50;99.90;;;;;;5146642;27;20300;-74
2021/11/28 11:49:15;;;;;;;1.17;0.40;;;5.40;99.90;;;;;;5147100;27;20284;-74
2021/11/28 11:51:42;;;;;;;1.30;0.77;;;5.20;99.90;;;;;;5144730;27;20284;-74
2021/11/28 11:54:21;;;;;;;1.40;0.47;;;5.10;99.90;;;;;;5145812;27;20295;-76
2021/11/28 11:56:55;;;;;;;1.10;0.50;;;5.00;99.90;;;;;;5144781;27;20299;-75
2021/11/28 11:59:52;;;;;;;4.60;1.63;;;4.90;99.90;;;;;;5147056;27;20760;-77
2021/11/28 12:02:38;;;;;;;2.43;0.50;;;4.80;99.90;;;;;;5145149;27;20315;-77
2021/11/28 12:05:25;;;;;;;0.53;0.40;;;4.80;99.90;;;;;;5145269;27;20349;-81
2021/11/28 12:07:59;;;;;;;3.10;0.60;;;4.70;99.90;;;;;;5145239;27;20355;-82
2021/11/28 12:10:27;;;;;;;1.40;0.33;;;4.70;99.90;;;;;;5145006;27;20704;-80
2021/11/28 12:12:53;;;;;;;1.67;0.80;;;4.70;99.90;;;;;;5144563;27;20780;-81
2021/11/28 12:15:21;;;;;;;1.27;0.43;;;4.60;99.90;;;;;;5145792;27;20299;-78
2021/11/28 12:17:46;;;;;;;1.57;0.70;;;4.60;99.90;;;;;;5144192;27;20117;-80
2021/11/28 12:20:15;;;;;;;2.83;0.80;;;4.50;99.90;;;;;;5146351;27;20724;-81
2021/11/28 12:22:45;;;;;;;2.50;1.10;;;4.50;99.90;;;;;;5144408;27;20553;-82
2021/11/28 12:25:44;;;;;;;4.13;1.50;;;4.60;99.90;;;;;;5145794;27;20291;-81
2021/11/28 12:28:30;;;;;;;1.90;0.40;;;4.70;99.90;;;;;;5145323;27;20289;-81
2021/11/28 12:31:02;;;;;;;2.23;0.57;;;4.70;99.90;;;;;;5145075;27;20316;-80
2021/11/28 12:33:59;;;;;;;1.48;0.70;;;4.70;99.90;;;;;;5136676;27;20296;-80
2021/11/28 12:36:35;;;;;;;4.03;0.57;;;4.80;99.90;;;;;;5129823;27;20100;-78
2021/11/28 12:39:16;;;;;;;2.10;0.50;;;4.80;99.90;;;;;;5130608;27;20316;-80
2021/11/28 12:41:48;;;;;;;2.90;1.70;;;4.90;99.90;;;;;;5130937;27;20331;-77
2021/11/28 12:44:24;;;;;;;7.97;4.25;;;4.90;99.90;;;;;;5131367;27;20095;-75
2021/11/28 12:47:15;;;;;;;2.67;1.53;;;5.00;99.90;;;;;;5129524;27;20039;-73
2021/11/28 12:49:51;;;;;;;4.30;1.40;;;5.00;99.90;;;;;;5129726;27;20342;-74
2021/11/28 12:52:26;;;;;;;1.63;1.13;;;5.10;99.90;;;;;;5131327;27;20447;-74
2021/11/28 12:55:04;;;;;;;1.90;1.13;;;5.20;99.90;;;;;;5129081;27;20380;-76
2021/11/28 12:57:37;;;;;;;4.93;4.53;;;5.20;99.90;;;;;;5129292;27;20316;-77
2021/11/28 13:00:34;;;;;;;6.57;2.60;;;5.20;99.90;;;;;;5130115;27;20315;-72
2021/11/28 13:03:07;;;;;;;3.00;1.00;;;5.20;99.90;;;;;;5129413;27;20332;-75
2021/11/28 13:05:40;;;;;;;3.03;1.00;;;5.30;99.90;;;;;;5129468;27;20377;-76
2021/11/28 13:08:05;;;;;;;4.30;1.67;;;5.40;99.90;;;;;;5129256;27;20850;-76
2021/11/28 13:10:35;;;;;;;3.50;0.83;;;5.50;99.90;;;;;;5129123;27;20433;-75
2021/11/28 13:13:11;;;;;;;3.57;1.30;;;5.70;99.90;;;;;;5128573;27;20050;-76
2021/11/28 13:15:39;;;;;;;2.30;1.37;;;5.80;99.90;;;;;;5128851;27;20396;-77
2021/11/28 13:18:08;;;;;;;4.00;0.90;;;6.00;99.90;;;;;;5130900;27;20047;-77
2021/11/28 13:20:36;;;;;;;2.37;1.20;;;6.00;99.90;;;;;;5130420;27;20328;-78
2021/11/28 13:23:04;;;;;;;5.60;1.27;;;6.00;99.90;;;;;;5128347;27;20078;-77
2021/11/28 13:25:32;;;;;;;3.50;1.10;;;5.90;99.90;;;;;;5130306;27;20047;-75
2021/11/28 13:28:15;;;;;;;1.33;1.03;;;5.80;99.90;;;;;;5126893;27;20281;-77
2021/11/28 13:30:46;;;;;;;2.20;0.50;;;5.70;99.90;;;;;;5120487;27;20310;-77
2021/11/28 13:33:36;;;;;;;0.98;0.55;;;5.60;99.90;;;;;;5120792;27;20371;-76
2021/11/28 13:36:07;;;;;;;1.70;0.70;;;5.60;99.90;;;;;;5166146;27;20134;-77
2021/11/28 13:38:37;;;;;;;6.53;1.70;;;5.60;99.90;;;;;;5133348;27;20304;-79
2021/11/28 13:41:26;;;;;;;5.53;1.70;;;5.70;99.90;;;;;;5132376;27;20284;-83
2021/11/28 13:44:05;;;;;;;5.90;2.70;;;5.80;99.90;;;;;;5132472;27;20058;-78
2021/11/28 13:46:49;;;;;;;4.33;2.30;;;5.90;99.90;;;;;;5131521;27;20277;-77
2021/11/28 13:49:23;;;;;;;6.43;3.70;;;6.00;99.90;;;;;;5131840;27;20373;-77
2021/11/28 13:51:49;;;;;;;6.63;2.70;;;6.10;99.90;;;;;;5132010;27;20047;-83
2021/11/28 13:54:36;;;;;;;3.33;1.73;;;6.10;99.90;;;;;;5131944;27;20458;-79
2021/11/28 13:57:31;;;;;;;2.93;1.70;;;6.10;99.90;;;;;;5130893;27;20485;-74
2021/11/28 14:00:00;;;;;;;3.97;2.50;;;6.10;99.90;;;;;;5119442;27;20051;-82
2021/11/28 14:02:27;;;;;;;5.03;2.90;;;6.10;99.90;;;;;;5131180;27;20075;-80
2021/11/28 14:05:07;;;;;;;1.83;1.00;;;6.10;99.90;;;;;;5132267;27;20468;-84
2021/11/28 14:07:40;;;;;;;7.00;1.87;;;6.10;99.90;;;;;;5133517;27;20087;-79
2021/11/28 14:10:30;;;;;;;5.67;1.37;;;6.00;99.90;;;;;;5132992;27;20046;-82
2021/11/28 14:12:58;;;;;;;4.33;1.60;;;6.00;99.90;;;;;;5124880;27;20051;-74
2021/11/28 14:15:29;;;;;;;6.13;2.03;;;5.90;99.90;;;;;;5134640;27;20189;-81
2021/11/28 14:18:16;;;;;;;4.63;2.08;;;5.90;99.90;;;;;;5134169;27;20063;-77
2021/11/28 14:20:44;;;;;;;2.60;1.40;;;5.90;99.90;;;;;;5133680;27;20072;-79
2021/11/28 14:23:12;;;;;;;3.53;1.80;;;5.80;99.90;;;;;;5133289;27;20051;-82
2021/11/28 14:25:44;;;;;;;3.93;1.10;;;5.70;99.90;;;;;;5131749;27;20280;-75
2021/11/28 14:28:17;;;;;;;2.17;1.40;;;5.60;99.90;;;;;;5132447;27;20289;-75
2021/11/28 14:30:52;;;;;;;2.37;1.57;;;5.60;99.90;;;;;;5131592;27;20849;-72
2021/11/28 14:33:20;;;;;;;4.23;2.70;;;5.50;99.90;;;;;;5130446;27;20297;-80
2021/11/28 14:35:52;;;;;;;9.57;6.13;;;5.40;99.90;;;;;;5131534;27;20679;-82
2021/11/28 14:38:35;;;;;;;8.30;7.32;;;5.40;99.90;;;;;;5129821;27;20292;-78
2021/11/28 14:41:10;;;;;;;7.47;5.27;;;5.30;99.90;;;;;;5132020;27;20043;-75
2021/11/28 14:43:57;;;;;;;10.33;6.47;;;5.20;99.90;;;;;;5130694;27;20289;-76
2021/11/28 14:46:29;;;;;;;8.93;3.03;;;5.20;99.90;;;;;;5131297;27;20712;-72
2021/11/28 14:49:05;;;;;;;;;;;5.20;99.90;;;;;;5131897;27;20285;-76
2021/11/28 14:51:51;;;;;;;6.00;2.10;;;5.10;99.90;;;;;;5132315;27;19980;-77
2021/11/28 14:54:34;;;;;;;8.20;5.63;;;5.10;99.90;;;;;;5131329;27;20276;-73
2021/11/28 14:57:13;;;;;;;7.60;3.93;;;5.10;99.90;;;;;;5131911;27;20281;-77
2021/11/28 14:59:49;;;;;;;5.40;2.87;;;5.10;99.90;;;;;;5131039;27;20287;-79
2021/11/28 15:02:22;;;;;;;4.83;3.70;;;5.10;99.90;;;;;;5130413;27;20744;-77
2021/11/28 15:04:59;;;;;;;6.47;3.00;;;5.00;99.90;;;;;;5132047;27;20284;-80
2021/11/28 15:07:30;;;;;;;5.23;4.63;;;4.90;99.90;;;;;;5131452;27;20571;-77
2021/11/28 15:09:58;;;;;;;6.35;3.72;;;4.90;99.90;;;;;;5130862;27;20385;-75
2021/11/28 15:12:26;;;;;;;3.07;2.33;;;4.90;99.90;;;;;;5130587;27;20093;-76
2021/11/28 15:14:54;;;;;;;4.53;1.43;;;4.90;99.90;;;;;;5131206;27;20377;-77
2021/11/28 15:17:20;;;;;;;2.80;1.23;;;4.90;99.90;;;;;;5130494;27;20057;-80
2021/11/28 15:19:46;;;;;;;5.00;2.03;;;4.80;99.90;;;;;;5129624;27;20288;-80
2021/11/28 15:22:12;;;;;;;6.87;2.77;;;4.80;99.90;;;;;;5130531;27;20108;-79
2021/11/28 15:24:37;;;;;;;4.67;2.60;;;4.70;99.90;;;;;;5130676;27;20219;-76
2021/11/28 15:27:03;;;;;;;10.90;5.70;;;4.70;99.90;;;;;;5129637;28;20092;-75
2021/11/28 15:29:29;;;;;;;7.63;4.37;;;4.70;99.90;;;;;;5128143;28;20035;-83
2021/11/28 15:31:56;;;;;;;4.70;3.27;;;4.60;99.90;;;;;;5129495;28;20125;-79
2021/11/28 15:34:22;;;;;;;6.40;3.10;;;4.60;99.90;;;;;;5129102;28;20289;-80
2021/11/28 15:36:51;;;;;;;8.37;5.33;;;4.60;99.90;;;;;;5128213;28;20293;-80
2021/11/28 15:39:18;;;;;;;4.60;2.70;;;4.60;99.90;;;;;;5129243;28;20343;-80
2021/11/28 15:41:44;;;;;;;2.87;1.93;;;4.60;99.90;;;;;;5129318;27;20308;-79
2021/11/28 15:44:10;;;;;;;6.30;3.00;;;4.70;99.90;;;;;;5131569;27;20292;-83
2021/11/28 15:46:35;;;;;;;7.93;4.50;;;4.70;99.90;;;;;;5131010;27;20296;-80
2021/11/28 15:49:01;;;;;;;4.23;2.33;;;4.70;99.90;;;;;;5129118;28;20070;-78
2021/11/28 15:51:27;;;;;;;8.03;4.10;;;4.70;99.90;;;;;;5129680;27;20050;-80
2021/11/28 15:53:52;;;;;;;7.83;3.97;;;4.70;99.90;;;;;;5129338;28;20432;-76
2021/11/28 15:56:18;;;;;;;3.80;1.77;;;4.70;99.90;;;;;;5130045;27;20181;-85
2021/11/28 15:58:43;;;;;;;3.97;1.33;;;4.70;99.90;;;;;;5129245;28;20130;-77
2021/11/28 16:01:09;;;;;;;5.20;1.93;;;4.70;99.90;;;;;;5129991;27;20476;-80
2021/11/28 16:03:36;;;;;;;6.97;1.63;;;4.70;99.90;;;;;;5129438;27;20395;-78
2021/11/28 16:06:02;;;;;;;4.53;1.70;;;4.70;99.90;;;;;;5130425;27;20047;-79
2021/11/28 16:08:30;;;;;;;5.40;3.40;;;4.70;99.90;;;;;;5130920;27;20768;-83
2021/11/28 16:10:56;;;;;;;4.97;1.30;;;4.70;99.90;;;;;;5132278;27;20069;-79
2021/11/28 16:13:21;;;;;;;6.50;2.00;;;4.70;99.90;;;;;;5135100;27;20379;-84
2021/11/28 16:15:51;;;;;;;9.70;4.40;;;4.60;99.90;;;;;;5133588;27;20072;-84
2021/11/28 16:18:16;;;;;;;11.40;5.23;;;4.70;99.90;;;;;;5134085;27;20042;-80
2021/11/28 16:20:42;;;;;;;4.53;2.27;;;4.70;99.90;;;;;;5132127;27;20788;-82
2021/11/28 16:23:08;;;;;;;14.10;2.23;;;4.70;99.90;;;;;;5131928;27;20058;-82
2021/11/28 16:25:33;;;;;;;10.77;6.50;;;4.70;99.90;;;;;;5133310;27;20356;-81
2021/11/28 16:27:59;;;;;;;6.83;2.53;;;4.70;99.90;;;;;;5133730;27;20047;-80
2021/11/28 16:30:40;;;;;;;6.00;2.53;;;4.60;99.80;;;;;;5134808;27;20039;-79
2021/11/28 16:33:06;;;;;;;2.27;1.17;;;4.50;99.90;;;;;;5133575;27;20075;-74
2021/11/28 16:35:32;;;;;;;6.63;2.20;;;4.40;99.60;;;;;;5133553;27;20268;-76
2021/11/28 16:37:58;;;;;;;4.10;1.97;;;4.40;99.70;;;;;;5131338;27;20372;-77
2021/11/28 16:40:23;;;;;;;3.83;1.30;;;4.30;99.90;;;;;;5132278;27;20469;-74
2021/11/28 16:42:49;;;;;;;4.77;2.60;;;4.30;99.70;;;;;;5133122;27;20203;-75
2021/11/28 16:45:14;;;;;;;3.70;1.90;;;4.20;99.70;;;;;;5133234;27;20115;-75
2021/11/28 16:47:40;;;;;;;3.93;2.00;;;4.20;99.70;;;;;;5133267;27;20047;-79
2021/11/28 16:50:09;;;;;;;5.50;3.40;;;4.10;99.60;;;;;;5133427;27;20090;-79
2021/11/28 16:52:35;;;;;;;5.73;4.27;;;4.10;99.80;;;;;;5132471;27;20462;-78
2021/11/28 16:55:01;;;;;;;9.27;6.80;;;4.20;99.80;;;;;;5131699;27;20370;-79
2021/11/28 16:57:26;;;;;;;11.17;7.03;;;4.20;99.70;;;;;;5131912;27;20371;-78
2021/11/28 16:59:52;;;;;;;5.70;3.00;;;4.20;99.90;;;;;;5131375;27;20046;-73
2021/11/28 17:02:17;;;;;;;4.67;1.93;;;4.20;99.90;;;;;;5133490;27;20100;-72
2021/11/28 17:04:43;;;;;;;2.37;1.37;;;4.20;99.90;;;;;;5132591;27;20380;-72
2021/11/28 17:07:08;;;;;;;5.50;2.13;;;4.30;99.90;;;;;;5132591;27;20054;-71
2021/11/28 17:09:34;;;;;;;4.87;2.33;;;4.30;99.90;;;;;;5132912;27;20050;-73
2021/11/28 17:12:00;;;;;;;4.53;2.43;;;4.40;99.90;;;;;;5132844;27;20039;-79
2021/11/28 17:14:25;;;;;;;3.10;2.10;;;4.40;99.90;;;;;;5130658;27;20486;-80
2021/11/28 17:16:51;;;;;;;5.27;3.20;;;4.40;99.90;;;;;;5131536;27;20067;-79
2021/11/28 17:19:17;;;;;;;6.60;2.20;;;4.50;99.90;;;;;;5132940;27;20392;-78
2021/11/28 17:21:43;;;;;;;5.97;2.77;;;4.50;99.90;;;;;;5130279;27;20309;-75
2021/11/28 17:24:08;;;;;;;6.60;2.70;;;4.50;99.90;;;;;;5131591;27;20054;-77
2021/11/28 17:26:35;;;;;;;8.13;3.57;;;4.50;99.90;;;;;;5131495;27;20480;-75
2021/11/28 17:29:02;;;;;;;3.90;2.63;;;4.50;99.90;;;;;;5131232;27;20046;-81
2021/11/28 17:31:28;;;;;;;5.97;3.20;;;4.50;99.90;;;;;;5131222;27;20293;-75
2021/11/28 17:33:55;;;;;;;5.77;2.63;;;4.50;99.90;;;;;;5131340;27;20296;-76
2021/11/28 17:36:21;;;;;;;5.33;2.73;;;4.50;99.90;;;;;;5131784;27;20154;-72
2021/11/28 17:38:47;;;;;;;5.83;2.80;;;4.50;99.90;;;;;;5130245;27;20488;-79
2021/11/28 17:41:12;;;;;;;8.03;2.53;;;4.50;99.90;;;;;;5129989;27;20095;-77
2021/11/28 17:43:38;;;;;;;6.73;3.50;;;4.50;99.90;;;;;;5133013;27;20042;-84
2021/11/28 17:46:04;;;;;;;10.70;5.10;;;4.50;99.90;;;;;;5131934;27;20103;-83
2021/11/28 17:48:29;;;;;;;7.37;5.30;;;4.50;99.90;;;;;;5131857;27;20122;-78
2021/11/28 17:50:55;;;;;;;5.27;3.90;;;4.50;99.90;;;;;;5132341;27;20664;-80
2021/11/28 17:53:21;;;;;;;10.27;6.90;;;4.50;99.90;;;;;;5130871;27;20043;-74
2021/11/28 17:55:48;;;;;;;15.20;10.57;;;4.50;99.90;;;;;;5131097;27;20039;-75
2021/11/28 17:58:14;;;;;;;12.03;8.43;;;4.50;99.90;;;;;;5132410;27;20046;-74
2021/11/28 18:00:41;;;;;;;9.30;6.43;;;4.40;99.90;;;;;;5130376;27;20649;-73
2021/11/28 18:03:06;;;;;;;8.73;7.73;;;4.40;99.90;;;;;;5130086;27;20420;-72
2021/11/28 18:05:32;;;;;;;12.23;7.87;;;4.40;99.90;;;;;;5130537;27;20764;-73
2021/11/28 18:07:57;;;;;;;9.63;7.43;;;4.30;99.90;;;;;;5131073;27;20043;-73
2021/11/28 18:10:25;;;;;;;10.53;6.93;;;4.30;99.90;;;;;;5130054;27;20047;-75
2021/11/28 18:12:51;;;;;;;9.17;7.07;;;4.30;99.90;;;;;;5131890;27;20067;-72
2021/11/28 18:15:16;;;;;;;11.27;7.43;;;4.30;99.90;;;;;;5130268;27;20716;-74
2021/11/28 18:17:42;;;;;;;10.10;7.13;;;4.20;99.90;;;;;;5130769;27;20379;-73
2021/11/28 18:20:09;;;;;;;8.90;6.00;;;4.20;99.90;;;;;;5130090;27;20460;-72
2021/11/28 18:22:35;;;;;;;11.97;7.13;;;4.10;99.90;;;;;;5129683;27;20300;-72
2021/11/28 18:25:02;;;;;;;9.30;6.67;;;4.10;99.90;;;;;;5130786;27;20378;-72
2021/11/28 18:27:28;;;;;;;13.77;9.17;;;4.00;99.90;;;;;;5131479;27;20114;-71
2021/11/28 18:29:54;;;;;;;13.83;11.03;;;4.00;99.90;;;;;;5130530;27;20680;-71
2021/11/28 18:32:20;;;;;;;17.53;13.70;;;3.90;99.90;;;;;;5130296;27;20481;-71
2021/11/28 18:34:45;;;;;;;12.83;11.33;;;3.90;99.90;;;;;;5129854;27;20313;-73
